createdAt,value
2022-11-10T00:01:46.609Z,-0.91
2022-11-10T00:04:32.403Z,-1.04
2022-11-10T00:07:18.652Z,-1.06
2022-11-10T00:10:06.853Z,-0.99
2022-11-10T00:12:53.872Z,-1.00
2022-11-10T00:16:00.016Z,-0.89
2022-11-10T00:18:46.978Z,-0.89
2022-11-10T00:21:38.005Z,-0.82
2022-11-10T00:24:24.791Z,-0.77
2022-11-10T00:27:11.745Z,-0.71
2022-11-10T00:29:57.672Z,-0.66
2022-11-10T00:32:44.141Z,-0.68
2022-11-10T00:35:30.164Z,-0.69
2022-11-10T00:50:33.010Z,-0.58
2022-11-10T00:53:19.366Z,-0.58
2022-11-10T00:56:05.786Z,-0.51
2022-11-10T00:58:51.765Z,-0.46
2022-11-10T01:01:56.951Z,-0.42
2022-11-10T01:05:32.861Z,-0.40
2022-11-10T01:08:18.814Z,-0.33
2022-11-10T01:11:06.457Z,-0.31
2022-11-10T01:13:53.380Z,-0.31
2022-11-10T01:16:39.091Z,-0.27
2022-11-10T01:19:25.836Z,-0.19
2022-11-10T01:22:11.746Z,-0.17
2022-11-10T01:24:57.888Z,-0.17
2022-11-10T01:27:45.903Z,-0.18
2022-11-10T01:30:32.283Z,-0.23
2022-11-10T01:33:19.807Z,-0.21
2022-11-10T01:36:06.686Z,-0.12
2022-11-10T01:38:53.067Z,-0.08
2022-11-10T01:41:39.346Z,-0.04
2022-11-10T01:44:25.794Z,-0.01
2022-11-10T01:47:11.727Z,-0.07
2022-11-10T01:49:58.822Z,-0.12
2022-11-10T01:52:47.770Z,-0.11
2022-11-10T01:55:35.080Z,-0.09
2022-11-10T01:58:25.289Z,-0.05
2022-11-10T02:01:11.427Z,-0.02
2022-11-10T02:04:08.576Z,-0.11
2022-11-10T02:06:54.938Z,-0.08
2022-11-10T02:09:41.944Z,-0.05
2022-11-10T02:12:39.724Z,-0.15
2022-11-10T02:15:26.429Z,-0.18
2022-11-10T02:18:13.926Z,-0.12
2022-11-10T02:21:00.832Z,-0.08
2022-11-10T02:23:51.665Z,-0.25
2022-11-10T02:26:40.272Z,-0.17
2022-11-10T02:29:26.684Z,-0.22
2022-11-10T02:32:12.813Z,-0.18
2022-11-10T02:34:59.081Z,-0.11
2022-11-10T02:37:45.972Z,-0.09
2022-11-10T02:40:33.083Z,-0.14
2022-11-10T02:43:20.387Z,-0.20
2022-11-10T02:46:06.767Z,-0.13
2022-11-10T02:48:53.761Z,-0.17
2022-11-10T02:51:40.468Z,-0.17
2022-11-10T02:54:27.159Z,-0.15
2022-11-10T02:57:13.578Z,-0.21
2022-11-10T02:59:59.776Z,-0.21
2022-11-10T03:02:45.989Z,-0.20
2022-11-10T03:05:32.424Z,-0.26
2022-11-10T03:08:18.358Z,-0.19
2022-11-10T03:11:05.369Z,-0.23
2022-11-10T03:14:01.548Z,-0.23
2022-11-10T03:16:48.473Z,-0.23
2022-11-10T03:19:35.491Z,-0.21
2022-11-10T03:22:21.290Z,-0.26
2022-11-10T03:25:08.120Z,-0.20
2022-11-10T03:27:55.754Z,-0.23
2022-11-10T03:30:42.877Z,-0.25
2022-11-10T03:33:28.709Z,-0.22
2022-11-10T03:36:14.748Z,-0.26
2022-11-10T03:39:01.076Z,-0.30
2022-11-10T03:41:47.305Z,-0.23
2022-11-10T03:44:33.179Z,-0.34
2022-11-10T03:47:19.388Z,-0.26
2022-11-10T03:50:06.413Z,-0.21
2022-11-10T03:52:52.777Z,-0.21
2022-11-10T03:55:39.585Z,-0.22
2022-11-10T03:58:25.773Z,-0.21
2022-11-10T04:01:11.985Z,-0.24
2022-11-10T04:03:58.524Z,-0.31
2022-11-10T04:07:03.363Z,-0.19
2022-11-10T04:09:49.673Z,-0.21
2022-11-10T04:12:54.919Z,-0.23
2022-11-10T04:15:43.625Z,-0.17
2022-11-10T04:18:30.493Z,-0.11
2022-11-10T04:21:17.073Z,-0.09
2022-11-10T04:24:03.572Z,-0.05
2022-11-10T04:26:50.146Z,-0.10
2022-11-10T04:29:36.109Z,-0.09
2022-11-10T04:32:22.326Z,-0.04
2022-11-10T04:35:09.021Z,-0.22
2022-11-10T04:37:55.162Z,-0.25
2022-11-10T04:40:41.433Z,-0.23
2022-11-10T04:43:27.860Z,-0.21
2022-11-10T04:46:33.931Z,-0.21
2022-11-10T04:49:21.204Z,-0.34
2022-11-10T04:52:07.757Z,-0.28
2022-11-10T04:54:53.917Z,-0.25
2022-11-10T04:57:40.760Z,-0.18
2022-11-10T05:00:27.436Z,-0.15
2022-11-10T05:03:13.531Z,-0.17
2022-11-10T05:06:00.168Z,-0.34
2022-11-10T05:08:46.375Z,-0.29
2022-11-10T05:11:32.851Z,-0.30
2022-11-10T05:14:20.243Z,-0.23
2022-11-10T05:17:06.601Z,-0.25
2022-11-10T05:19:52.495Z,-0.21
2022-11-10T05:22:38.883Z,-0.07
2022-11-10T05:25:25.493Z,-0.21
2022-11-10T05:28:12.114Z,-0.06
2022-11-10T05:30:58.429Z,-0.07
2022-11-10T05:33:44.447Z,-0.25
2022-11-10T05:36:30.407Z,-0.10
2022-11-10T05:39:16.487Z,-0.07
2022-11-10T05:42:02.814Z,-0.01
2022-11-10T05:44:49.133Z,-0.10
2022-11-10T05:47:38.487Z,0.06
2022-11-10T05:50:25.044Z,0.04
2022-11-10T05:53:11.425Z,0.10
2022-11-10T05:56:35.397Z,0.10
2022-11-10T05:59:21.234Z,0.24
2022-11-10T06:02:07.447Z,0.24
2022-11-10T06:04:53.603Z,0.08
2022-11-10T06:07:39.635Z,-0.01
2022-11-10T06:10:27.049Z,-0.09
2022-11-10T06:13:12.918Z,0.00
2022-11-10T06:15:59.057Z,-0.01
2022-11-10T06:18:45.603Z,-0.02
2022-11-10T06:21:32.724Z,0.13
2022-11-10T06:24:19.113Z,0.31
2022-11-10T06:27:05.525Z,0.34
2022-11-10T06:29:51.760Z,0.40
2022-11-10T06:32:43.242Z,0.36
2022-11-10T06:35:30.608Z,0.44
2022-11-10T06:38:16.920Z,0.53
2022-11-10T06:41:03.328Z,0.71
2022-11-10T06:43:49.400Z,0.77
2022-11-10T06:46:41.097Z,0.95
2022-11-10T06:49:28.351Z,0.93
2022-11-10T06:52:15.824Z,0.99
2022-11-10T06:55:02.251Z,0.98
2022-11-10T06:57:48.273Z,0.90
2022-11-10T07:00:34.681Z,0.84
2022-11-10T07:03:20.863Z,0.81
2022-11-10T07:06:08.496Z,0.83
2022-11-10T07:08:54.437Z,0.94
2022-11-10T07:11:41.279Z,1.09
2022-11-10T07:14:27.408Z,1.13
2022-11-10T07:17:14.374Z,1.39
2022-11-10T07:20:01.140Z,1.45
2022-11-10T07:22:47.828Z,1.55
2022-11-10T07:25:35.915Z,1.66
2022-11-10T07:28:25.905Z,1.60
2022-11-10T07:31:14.843Z,1.49
2022-11-10T07:34:01.302Z,1.70
2022-11-10T07:36:48.553Z,1.87
2022-11-10T07:39:34.714Z,2.02
2022-11-10T07:42:21.326Z,2.10
2022-11-10T07:45:07.905Z,2.17
2022-11-10T07:48:01.664Z,2.34
2022-11-10T07:50:47.561Z,2.62
2022-11-10T07:53:33.848Z,2.88
2022-11-10T07:56:20.072Z,2.91
2022-11-10T07:59:06.245Z,2.99
2022-11-10T08:01:52.663Z,3.11
2022-11-10T08:04:39.221Z,2.98
2022-11-10T08:07:25.629Z,3.00
2022-11-10T08:10:11.656Z,2.94
2022-11-10T08:12:59.264Z,2.95
2022-11-10T08:15:45.736Z,3.22
2022-11-10T08:18:35.245Z,3.16
2022-11-10T08:21:21.948Z,3.00
2022-11-10T08:24:08.671Z,2.95
2022-11-10T08:26:55.050Z,2.81
2022-11-10T08:29:41.239Z,2.97
2022-11-10T08:32:27.955Z,3.09
2022-11-10T08:35:14.046Z,3.21
2022-11-10T08:38:15.206Z,3.23
2022-11-10T08:41:01.692Z,3.52
2022-11-10T08:43:48.265Z,3.66
2022-11-10T08:46:35.100Z,3.59
2022-11-10T08:49:21.063Z,3.41
2022-11-10T08:52:07.354Z,3.52
2022-11-10T08:54:53.408Z,3.75
2022-11-10T08:57:39.946Z,3.85
2022-11-10T09:00:25.736Z,4.02
2022-11-10T09:03:19.327Z,3.99
2022-11-10T09:06:05.455Z,3.75
2022-11-10T09:08:51.582Z,3.77
2022-11-10T09:11:37.781Z,4.11
2022-11-10T09:14:28.073Z,4.40
2022-11-10T09:17:15.040Z,4.31
2022-11-10T09:20:04.780Z,4.11
2022-11-10T09:22:50.948Z,3.89
2022-11-10T09:25:39.093Z,4.14
2022-11-10T09:28:25.366Z,4.42
2022-11-10T09:31:13.758Z,4.82
2022-11-10T09:34:00.136Z,5.03
2022-11-10T09:36:46.855Z,5.26
2022-11-10T09:39:33.509Z,5.47
2022-11-10T09:42:37.692Z,5.51
2022-11-10T09:45:26.845Z,5.51
2022-11-10T09:48:17.769Z,5.20
2022-11-10T09:51:21.185Z,5.15
2022-11-10T09:54:40.696Z,5.16
2022-11-10T09:57:26.997Z,5.23
2022-11-10T10:00:15.295Z,5.38
2022-11-10T10:03:03.309Z,5.16
2022-11-10T10:06:11.315Z,5.12
2022-11-10T10:09:09.840Z,5.09
2022-11-10T10:12:47.249Z,5.11
2022-11-10T10:15:39.215Z,5.54
2022-11-10T10:18:31.319Z,5.68
2022-11-10T10:21:31.003Z,5.85
2022-11-10T10:24:22.183Z,5.86
2022-11-10T10:27:11.861Z,5.66
2022-11-10T10:29:57.596Z,5.89
2022-11-10T10:32:44.004Z,5.85
2022-11-10T10:35:31.422Z,6.05
2022-11-10T10:38:28.436Z,5.98
2022-11-10T10:41:26.908Z,5.82
2022-11-10T10:44:17.545Z,5.83
2022-11-10T10:47:04.733Z,5.88
2022-11-10T10:49:50.616Z,6.04
2022-11-10T10:52:37.335Z,6.06
2022-11-10T10:55:23.775Z,6.17
2022-11-10T10:58:48.934Z,6.30
2022-11-10T11:01:38.191Z,6.50
2022-11-10T11:04:35.706Z,6.58
2022-11-10T11:07:25.166Z,6.71
2022-11-10T11:10:21.901Z,6.64
2022-11-10T11:13:16.448Z,6.78
2022-11-10T11:16:08.748Z,6.87
2022-11-10T11:18:54.843Z,6.80
2022-11-10T11:22:00.588Z,6.63
2022-11-10T11:25:26.283Z,6.59
2022-11-10T11:28:21.580Z,6.79
2022-11-10T11:31:23.309Z,7.05
2022-11-10T11:34:33.927Z,7.28
2022-11-10T11:37:50.811Z,7.31
2022-11-10T11:40:44.529Z,7.39
2022-11-10T11:43:51.648Z,7.58
2022-11-10T11:46:54.258Z,7.87
2022-11-10T11:50:22.553Z,7.90
2022-11-10T11:53:34.649Z,7.76
2022-11-10T11:56:28.548Z,7.79
2022-11-10T11:59:43.088Z,7.68
2022-11-10T12:02:53.609Z,7.55
2022-11-10T12:05:50.985Z,7.75
2022-11-10T12:08:54.356Z,7.69
2022-11-10T12:11:59.556Z,7.83
2022-11-10T12:15:09.763Z,7.94
2022-11-10T12:18:20.918Z,8.08
2022-11-10T12:21:11.031Z,7.87
2022-11-10T12:24:15.623Z,7.82
2022-11-10T12:27:24.101Z,8.06
2022-11-10T12:30:11.312Z,8.43
2022-11-10T12:33:15.097Z,8.64
2022-11-10T12:36:01.444Z,8.82
2022-11-10T12:39:15.774Z,8.78
2022-11-10T12:42:01.872Z,8.56
2022-11-10T12:44:56.446Z,8.46
2022-11-10T12:47:44.380Z,8.36
2022-11-10T12:50:34.523Z,8.36
2022-11-10T12:53:25.446Z,7.97
2022-11-10T12:56:24.797Z,7.88
2022-11-10T12:59:14.450Z,8.06
2022-11-10T13:02:06.613Z,8.32
2022-11-10T13:05:25.226Z,8.34
2022-11-10T13:08:28.272Z,8.49
2022-11-10T13:11:15.383Z,8.70
2022-11-10T13:14:05.442Z,8.60
2022-11-10T13:16:54.382Z,8.56
2022-11-10T13:19:49.449Z,8.41
2022-11-10T13:22:40.983Z,8.24
2022-11-10T13:25:37.515Z,8.00
2022-11-10T13:28:48.501Z,7.69
2022-11-10T13:31:40.024Z,7.49
2022-11-10T13:34:30.775Z,7.28
2022-11-10T13:37:35.140Z,7.09
2022-11-10T13:40:24.066Z,6.92
2022-11-10T13:43:19.968Z,6.79
2022-11-10T13:46:06.435Z,6.66
2022-11-10T13:49:15.680Z,6.57
2022-11-10T13:52:32.865Z,6.47
2022-11-10T13:55:27.601Z,6.34
2022-11-10T13:58:26.284Z,6.25
2022-11-10T14:01:15.585Z,6.16
2022-11-10T14:04:02.423Z,6.07
2022-11-10T14:06:52.328Z,6.03
2022-11-10T14:09:43.165Z,5.98
2022-11-10T14:12:39.848Z,5.94
2022-11-10T14:15:35.353Z,5.88
2022-11-10T14:18:25.342Z,5.78
2022-11-10T14:21:12.774Z,5.67
2022-11-10T14:24:15.878Z,5.57
2022-11-10T14:27:06.984Z,5.47
2022-11-10T14:30:15.185Z,5.35
2022-11-10T14:33:24.695Z,5.25
2022-11-10T14:36:11.865Z,5.11
2022-11-10T14:38:58.307Z,5.00
2022-11-10T14:41:48.070Z,4.92
2022-11-10T14:44:34.790Z,4.82
2022-11-10T14:47:31.360Z,4.72
2022-11-10T14:50:22.786Z,4.59
2022-11-10T14:53:19.556Z,4.51
2022-11-10T14:56:07.680Z,4.41
2022-11-10T14:58:53.735Z,4.32
2022-11-10T15:01:40.892Z,4.22
2022-11-10T15:04:29.560Z,4.16
2022-11-10T15:07:16.283Z,4.05
2022-11-10T15:10:24.118Z,3.94
2022-11-10T15:13:13.353Z,3.79
2022-11-10T15:16:28.177Z,3.69
2022-11-10T15:19:36.308Z,3.59
2022-11-10T15:22:35.860Z,3.47
2022-11-10T15:25:23.332Z,3.36
2022-11-10T15:28:13.129Z,3.29
2022-11-10T15:31:04.030Z,3.24
2022-11-10T15:33:55.788Z,3.14
2022-11-10T15:36:42.207Z,3.05
2022-11-10T15:39:30.281Z,3.03
2022-11-10T15:42:18.560Z,3.06
2022-11-10T15:45:05.203Z,2.98
2022-11-10T15:47:51.152Z,2.91
2022-11-10T15:50:37.415Z,2.83
2022-11-10T15:53:28.302Z,2.68
2022-11-10T15:56:18.504Z,2.56
2022-11-10T15:59:04.519Z,2.44
2022-11-10T16:01:50.559Z,2.37
2022-11-10T16:04:37.658Z,2.27
2022-11-10T16:07:24.059Z,2.24
2022-11-10T16:10:10.622Z,2.16
2022-11-10T16:12:57.136Z,2.06
2022-11-10T16:15:43.502Z,1.94
2022-11-10T16:18:30.361Z,1.82
2022-11-10T16:21:21.642Z,1.79
2022-11-10T16:24:08.484Z,1.73
2022-11-10T16:26:54.677Z,1.65
2022-11-10T16:29:41.806Z,1.56
2022-11-10T16:32:27.904Z,1.48
2022-11-10T16:35:14.497Z,1.42
2022-11-10T16:38:00.487Z,1.37
2022-11-10T16:40:54.705Z,1.32
2022-11-10T16:43:41.032Z,1.29
2022-11-10T16:46:29.737Z,1.23
2022-11-10T16:49:25.707Z,1.19
2022-11-10T16:52:15.663Z,1.16
2022-11-10T16:55:01.957Z,1.12
2022-11-10T16:57:48.900Z,1.09
2022-11-10T17:00:35.717Z,1.04
2022-11-10T17:03:47.971Z,1.01
2022-11-10T17:06:52.194Z,0.96
2022-11-10T17:09:38.594Z,0.95
2022-11-10T17:12:24.997Z,0.90
2022-11-10T17:15:15.479Z,0.84
2022-11-10T17:18:04.745Z,0.83
2022-11-10T17:20:52.197Z,0.80
2022-11-10T17:23:38.555Z,0.83
2022-11-10T17:26:24.520Z,0.81
2022-11-10T17:29:21.157Z,0.76
2022-11-10T17:32:07.441Z,0.80
2022-11-10T17:34:53.699Z,0.80
2022-11-10T17:37:40.517Z,0.78
2022-11-10T17:40:27.196Z,0.75
2022-11-10T17:43:13.736Z,0.69
2022-11-10T17:45:59.961Z,0.67
2022-11-10T17:48:48.004Z,0.67
2022-11-10T17:51:34.842Z,0.64
2022-11-10T17:54:20.865Z,0.62
2022-11-10T17:57:09.708Z,0.60
2022-11-10T17:59:56.314Z,0.61
2022-11-10T18:02:43.441Z,0.60
2022-11-10T18:05:29.517Z,0.60
2022-11-10T18:08:16.356Z,0.58
2022-11-10T18:11:02.617Z,0.59
2022-11-10T18:13:48.649Z,0.49
2022-11-10T18:16:34.874Z,0.45
2022-11-10T18:19:21.469Z,0.48
2022-11-10T18:22:07.732Z,0.58
2022-11-10T18:24:53.723Z,0.54
2022-11-10T18:27:39.962Z,0.59
2022-11-10T18:30:25.843Z,0.56
2022-11-10T18:33:12.481Z,0.51
2022-11-10T18:35:59.228Z,0.50
2022-11-10T18:38:45.582Z,0.43
2022-11-10T18:41:49.903Z,0.42
2022-11-10T18:44:37.786Z,0.42
2022-11-10T18:47:23.928Z,0.36
2022-11-10T18:50:10.130Z,0.31
2022-11-10T18:52:57.145Z,0.28
2022-11-10T18:55:53.207Z,0.25
2022-11-10T18:58:39.114Z,0.24
2022-11-10T19:01:25.458Z,0.23
2022-11-10T19:04:12.145Z,0.22
2022-11-10T19:06:58.459Z,0.20
2022-11-10T19:09:46.004Z,0.19
2022-11-10T19:12:32.175Z,0.14
2022-11-10T19:15:20.536Z,0.12
2022-11-10T19:18:10.847Z,0.11
2022-11-10T19:20:57.267Z,0.13
2022-11-10T19:23:43.270Z,0.08
2022-11-10T19:26:35.269Z,0.07
2022-11-10T19:29:21.396Z,0.09
2022-11-10T19:32:07.812Z,0.15
2022-11-10T19:34:55.931Z,0.20
2022-11-10T19:37:42.453Z,0.18
2022-11-10T19:40:28.644Z,0.19
2022-11-10T19:43:14.786Z,0.15
2022-11-10T19:46:05.130Z,0.07
2022-11-10T19:48:51.772Z,0.05
2022-11-10T19:51:39.762Z,0.04
2022-11-10T19:54:25.923Z,0.09
2022-11-10T19:57:12.108Z,0.13
2022-11-10T19:59:58.379Z,0.20
2022-11-10T20:02:45.821Z,0.29
2022-11-10T20:05:33.224Z,0.29
2022-11-10T20:08:19.147Z,0.30
2022-11-10T20:11:13.115Z,0.33
2022-11-10T20:14:01.471Z,0.36
2022-11-10T20:16:50.353Z,0.40
2022-11-10T20:19:41.191Z,0.39
2022-11-10T20:22:27.621Z,0.48
2022-11-10T20:25:13.954Z,0.49
2022-11-10T20:28:06.062Z,0.54
2022-11-10T20:30:55.416Z,0.56
2022-11-10T20:33:41.661Z,0.48
2022-11-10T20:36:29.543Z,0.50
2022-11-10T20:39:15.700Z,0.57
2022-11-10T20:42:01.632Z,0.55
2022-11-10T20:44:47.859Z,0.59
2022-11-10T20:47:34.438Z,0.53
2022-11-10T20:50:24.376Z,0.47
2022-11-10T20:53:10.885Z,0.50
2022-11-10T20:56:02.211Z,0.43
2022-11-10T20:58:49.270Z,0.36
2022-11-10T21:01:37.878Z,0.25
2022-11-10T21:04:24.317Z,0.25
2022-11-10T21:07:10.824Z,0.21
2022-11-10T21:09:57.398Z,0.22
2022-11-10T21:12:50.007Z,0.22
2022-11-10T21:15:39.530Z,0.26
2022-11-10T21:18:33.739Z,0.22
2022-11-10T21:21:21.952Z,0.13
2022-11-10T21:24:09.505Z,0.15
2022-11-10T21:26:58.193Z,0.14
2022-11-10T21:29:44.457Z,0.08
2022-11-10T21:32:30.623Z,0.03
2022-11-10T21:35:16.847Z,0.06
2022-11-10T21:38:03.567Z,0.05
2022-11-10T21:40:49.716Z,-0.01
2022-11-10T21:43:38.865Z,-0.11
2022-11-10T21:46:24.895Z,-0.16
2022-11-10T21:49:10.938Z,-0.21
2022-11-10T21:51:57.496Z,-0.23
2022-11-10T21:54:43.715Z,-0.18
2022-11-10T21:57:30.133Z,-0.16
2022-11-10T22:00:16.873Z,-0.22
2022-11-10T22:03:03.872Z,-0.24
2022-11-10T22:05:50.112Z,-0.30
2022-11-10T22:08:37.092Z,-0.33
2022-11-10T22:12:03.190Z,-0.33
2022-11-10T22:15:08.934Z,-0.40
2022-11-10T22:18:16.195Z,-0.38
2022-11-10T22:21:03.166Z,-0.34
2022-11-10T22:24:07.475Z,-0.34
2022-11-10T22:27:00.802Z,-0.40
2022-11-10T22:29:46.802Z,-0.41
2022-11-10T22:32:33.593Z,-0.48
2022-11-10T22:35:58.197Z,-0.56
2022-11-10T22:38:44.433Z,-0.63
2022-11-10T22:41:50.054Z,-0.68
2022-11-10T22:44:36.553Z,-0.72
2022-11-10T22:47:22.497Z,-0.77
2022-11-10T22:50:08.808Z,-0.76
2022-11-10T22:52:54.927Z,-0.79
2022-11-10T22:55:41.131Z,-0.79
2022-11-10T22:58:27.699Z,-0.81
2022-11-10T23:01:14.001Z,-0.77
2022-11-10T23:04:00.953Z,-0.78
2022-11-10T23:06:47.288Z,-0.77
2022-11-10T23:09:34.905Z,-0.70
2022-11-10T23:12:20.774Z,-0.62
2022-11-10T23:15:07.475Z,-0.66
2022-11-10T23:17:54.510Z,-0.69
2022-11-10T23:20:40.832Z,-0.77
2022-11-10T23:23:32.063Z,-0.83
2022-11-10T23:26:20.462Z,-0.90
2022-11-10T23:29:06.594Z,-0.92
2022-11-10T23:31:54.841Z,-0.93
2022-11-10T23:34:59.398Z,-0.92
2022-11-10T23:37:45.624Z,-0.93
2022-11-10T23:40:32.306Z,-0.99
2022-11-10T23:43:18.392Z,-0.99
2022-11-10T23:46:08.129Z,-1.02
2022-11-10T23:48:54.362Z,-1.07
2022-11-10T23:51:41.303Z,-1.13
2022-11-10T23:54:27.210Z,-1.19
2022-11-10T23:57:13.551Z,-1.19
2022-11-10T23:59:59.627Z,-1.19
